Time;durP1;ratioP1;P1;durP2;ratioP2;P2;SDS_P1;SDS_P2;PMS_P1;PMS_P2;Temp;Humidity;BMP_temperature;BMP_pressure;BME280_temperature;BME280_humidity;BME280_pressure;Samples;Min_cycle;Max_cycle;Signal;HPM_P1;HPM_P2
2021/04/12 00:01:09;;;;;;;0.67;0.67;;;;;;;6.67;73.78;99044.38;5069715;28;20224;-83
2021/04/12 00:04:26;;;;;;;0.97;0.90;;;;;;;6.63;73.91;99049.28;5066615;28;20557;-85
2021/04/12 00:07:40;;;;;;;1.10;0.80;;;;;;;6.62;74.01;99044.97;5047760;28;20281;-83
2021/04/12 00:11:08;;;;;;;1.10;1.00;;;;;;;6.63;73.96;99059.94;5051790;28;20219;-83
2021/04/12 00:14:39;;;;;;;2.87;0.90;;;;;;;6.64;73.98;99064.22;5068497;28;20273;-84
2021/04/12 00:17:48;;;;;;;1.20;0.90;;;;;;;6.53;73.86;99062.19;5055893;28;20291;-83
2021/04/12 00:21:02;;;;;;;1.40;1.20;;;;;;;6.42;74.38;99057.53;5066610;28;20734;-83
2021/04/12 00:24:27;;;;;;;1.10;1.00;;;;;;;6.39;75.05;99068.56;5071550;28;20205;-85
2021/04/12 00:27:56;;;;;;;1.53;1.13;;;;;;;6.27;75.00;99058.75;5069017;28;20236;-83
2021/04/12 00:31:29;;;;;;;1.23;1.13;;;;;;;6.23;75.32;99071.66;5049219;28;20258;-83
2021/04/12 00:34:43;;;;;;;1.27;1.10;;;;;;;6.05;75.96;99052.84;5041008;28;20216;-84
2021/04/12 00:38:02;;;;;;;1.40;1.30;;;;;;;6.09;75.93;99060.19;5074118;23;20221;-83
2021/04/12 00:41:38;;;;;;;1.53;1.20;;;;;;;6.03;75.84;99063.66;5070807;22;20225;-83
2021/04/12 00:45:40;;;;;;;2.20;1.30;;;;;;;5.92;76.22;99058.97;5009997;28;20233;-84
2021/04/12 00:48:58;;;;;;;3.23;1.53;;;;;;;5.86;76.58;99057.09;5021358;28;20218;-83
2021/04/12 00:52:16;;;;;;;1.70;1.30;;;;;;;5.79;76.60;99058.91;5025859;28;20183;-84
2021/04/12 00:55:29;;;;;;;1.77;1.50;;;;;;;5.64;75.66;99051.13;5015737;28;20232;-84
2021/04/12 00:58:42;;;;;;;1.90;1.43;;;;;;;5.53;75.74;99037.59;5013823;28;20250;-83
2021/04/12 01:02:28;;;;;;;1.70;1.60;;;;;;;5.41;76.06;99032.06;4606077;27;15044636;-83
2021/04/12 01:06:27;;;;;;;2.00;1.80;;;;;;;5.40;76.20;99029.59;5089821;22;20224;-82
2021/04/12 01:09:53;;;;;;;1.77;1.50;;;;;;;5.31;76.34;99026.31;4985998;28;20330;-83
2021/04/12 01:13:19;;;;;;;3.07;1.83;;;;;;;5.37;76.62;99044.09;5040766;22;20231;-82
2021/04/12 01:16:44;;;;;;;2.10;1.67;;;;;;;5.29;77.03;99041.63;5083192;28;20220;-82
2021/04/12 01:20:22;;;;;;;3.27;1.63;;;;;;;5.29;77.44;99034.47;5070883;28;20220;-83
2021/04/12 01:23:38;;;;;;;4.10;1.80;;;;;;;5.25;77.82;99027.94;5053078;22;20225;-82
2021/04/12 01:27:24;;;;;;;2.80;1.70;;;;;;;5.21;77.87;99042.63;5028519;28;20226;-82
2021/04/12 01:31:00;;;;;;;2.17;1.90;;;;;;;5.17;78.08;99035.28;5044179;22;20241;-84
2021/04/12 01:34:42;;;;;;;4.63;2.00;;;;;;;5.17;78.13;99043.22;5027179;28;20187;-83
2021/04/12 01:38:40;;;;;;;3.33;1.80;;;;;;;5.15;78.26;99059.34;5046620;28;20217;-82
2021/04/12 01:42:27;;;;;;;3.67;1.60;;;;;;;5.23;78.11;99059.16;5059914;28;20228;-83
2021/04/12 01:46:27;;;;;;;1.77;1.67;;;;;;;5.19;78.00;99055.28;5025402;28;20232;-83
2021/04/12 01:50:03;;;;;;;2.40;1.80;;;;;;;5.12;78.51;99053.63;5008446;28;20234;-82
2021/04/12 01:53:58;;;;;;;3.23;1.80;;;;;;;5.13;78.69;99065.91;5042640;28;20534;-84
2021/04/12 01:57:18;;;;;;;2.00;1.80;;;;;;;5.06;78.52;99051.75;5064537;28;20224;-82
2021/04/12 02:00:37;;;;;;;2.67;1.90;;;;;;;5.03;78.61;99053.00;5012058;28;20303;-82
2021/04/12 02:03:59;;;;;;;2.30;2.00;;;;;;;4.94;78.92;99061.31;5045935;28;20229;-82
2021/04/12 02:07:30;;;;;;;2.07;1.83;;;;;;;4.76;79.30;99041.41;5062315;28;20540;-82
2021/04/12 02:10:42;;;;;;;2.37;2.10;;;;;;;4.73;79.31;99060.38;5026201;28;20214;-81
2021/04/12 02:14:30;;;;;;;2.80;1.70;;;;;;;4.61;80.09;99066.44;5038498;28;20250;-81
2021/04/12 02:18:17;;;;;;;2.20;2.00;;;;;;;4.58;79.94;99072.13;5054399;23;20566;-81
2021/04/12 02:21:45;;;;;;;2.43;2.00;;;;;;;4.53;79.76;99077.19;4983929;28;20651;-82
2021/04/12 02:25:09;;;;;;;2.07;1.87;;;;;;;4.51;80.02;99065.97;5009688;28;20236;-82
2021/04/12 02:29:02;;;;;;;2.17;1.87;;;;;;;4.48;80.51;99066.38;5008936;28;20235;-82
2021/04/12 02:32:25;;;;;;;2.37;1.93;;;;;;;4.41;80.71;99053.03;5033993;28;20203;-81
2021/04/12 02:36:10;;;;;;;2.87;2.17;;;;;;;4.26;80.82;99052.31;5028552;23;20249;-82
2021/04/12 02:39:40;;;;;;;2.53;2.00;;;;;;;4.31;80.76;99069.31;5017972;28;20258;-82
2021/04/12 02:43:11;;;;;;;2.80;2.17;;;;;;;4.29;80.48;99059.91;5027552;28;20254;-82
2021/04/12 02:46:40;;;;;;;2.23;2.03;;;;;;;4.23;80.29;99060.66;5036266;23;20225;-81
2021/04/12 02:50:08;;;;;;;4.13;2.30;;;;;;;4.19;80.42;99051.47;5056964;23;20235;-82
2021/04/12 02:53:29;;;;;;;2.43;1.90;;;;;;;4.18;80.86;99057.78;5039506;23;20241;-82
2021/04/12 02:57:03;;;;;;;2.10;1.90;;;;;;;4.16;80.92;99047.34;5037089;23;20261;-83
2021/04/12 03:00:35;;;;;;;2.93;2.03;;;;;;;4.08;81.39;99041.38;5049837;23;20218;-82
2021/04/12 03:04:24;;;;;;;3.33;1.97;;;;;;;4.04;81.31;99035.66;5069039;23;20224;-81
2021/04/12 03:07:44;;;;;;;2.83;2.03;;;;;;;4.00;81.96;99042.34;5089224;23;20221;-82
2021/04/12 03:11:10;;;;;;;2.83;2.10;;;;;;;4.02;82.13;99050.09;5067178;28;20307;-82
2021/04/12 03:14:27;;;;;;;5.10;2.33;;;;;;;3.97;82.36;99054.13;5072501;28;20266;-82
2021/04/12 03:17:42;;;;;;;3.80;2.10;;;;;;;3.95;82.18;99061.47;5071058;28;20205;-82
2021/04/12 03:21:27;;;;;;;3.40;2.30;;;;;;;3.92;82.47;99050.41;5071139;28;20233;-81
2021/04/12 03:24:57;;;;;;;2.37;2.07;;;;;;;4.00;81.78;99074.16;5100665;22;20240;-82
2021/04/12 03:28:55;;;;;;;2.97;2.10;;;;;;;3.99;81.51;99089.22;5078889;28;20200;-82
2021/04/12 03:32:50;;;;;;;2.70;2.03;;;;;;;4.00;81.92;99100.66;5091283;23;20229;-82
2021/04/12 03:36:22;;;;;;;3.07;2.30;;;;;;;3.88;81.69;99092.38;5086444;28;20232;-83
2021/04/12 03:39:47;;;;;;;2.37;1.93;;;;;;;3.76;82.03;99077.19;5093644;22;20286;-82
2021/04/12 03:42:57;;;;;;;2.47;2.27;;;;;;;3.83;81.78;99101.91;4611111;22;13807581;-82
2021/04/12 03:46:39;;;;;;;2.90;2.43;;;;;;;3.77;81.75;99111.47;5063448;28;20229;-81
2021/04/12 03:50:01;;;;;;;2.60;2.23;;;;;;;3.76;81.92;99115.09;5070093;23;20216;-82
2021/04/12 03:53:32;;;;;;;5.10;2.07;;;;;;;3.73;81.81;99114.66;5041030;28;20214;-82
2021/04/12 03:57:09;;;;;;;3.90;2.37;;;;;;;3.67;82.48;99112.75;5013747;28;20232;-82
2021/04/12 04:00:32;;;;;;;3.50;2.60;;;;;;;3.60;82.48;99110.03;5003224;28;20699;-82
2021/04/12 04:03:55;;;;;;;2.53;2.20;;;;;;;3.53;82.90;99102.03;5001253;28;20208;-82
2021/04/12 04:07:05;;;;;;;2.63;2.27;;;;;;;3.49;83.07;99099.94;5027976;28;20249;-81
2021/04/12 04:10:41;;;;;;;3.53;2.40;;;;;;;3.46;82.83;99102.94;5059240;23;20330;-82
2021/04/12 04:13:51;;;;;;;2.63;2.40;;;;;;;3.47;82.93;99115.19;5063874;28;20221;-81
2021/04/12 04:17:05;;;;;;;4.73;2.77;;;;;;;3.48;82.58;99106.25;5083887;22;20225;-82
2021/04/12 04:20:33;;;;;;;5.20;2.73;;;;;;;3.51;83.11;99109.31;5060298;28;20260;-84
2021/04/12 04:23:48;;;;;;;3.20;2.90;;;;;;;3.57;82.69;99117.53;5052760;23;20317;-82
2021/04/12 04:27:22;;;;;;;2.57;2.37;;;;;;;3.66;82.95;99117.25;5024973;28;20222;-82
2021/04/12 04:30:50;;;;;;;4.90;3.50;;;;;;;3.71;82.44;99122.78;5016768;28;20215;-81
2021/04/12 04:34:12;;;;;;;4.63;3.10;;;;;;;3.78;82.68;99125.53;5004048;28;20227;-82
2021/04/12 04:37:28;;;;;;;7.77;4.53;;;;;;;3.83;82.40;99126.59;5027364;23;20674;-81
2021/04/12 04:40:58;;;;;;;14.37;7.80;;;;;;;3.88;81.88;99141.91;4995849;28;20274;-81
2021/04/12 04:44:39;;;;;;;12.77;7.07;;;;;;;3.98;81.97;99139.78;4997771;28;20659;-82
2021/04/12 04:48:22;;;;;;;8.10;5.30;;;;;;;4.20;81.99;99167.91;5032864;23;20223;-81
2021/04/12 04:52:04;;;;;;;6.57;3.00;;;;;;;4.42;80.81;99184.66;5047904;28;20194;-81
2021/04/12 04:55:59;;;;;;;3.70;2.37;;;;;;;4.56;80.24;99181.13;4997354;23;20239;-81
2021/04/12 04:59:29;;;;;;;2.70;2.50;;;;;;;4.69;79.62;99180.38;5031588;23;20239;-81
2021/04/12 05:03:10;;;;;;;3.43;2.47;;;;;;;4.90;79.09;99193.59;5100953;23;20306;-82
2021/04/12 05:06:48;;;;;;;3.33;2.40;;;;;;;5.08;78.77;99209.88;5044812;23;20265;-81
2021/04/12 05:10:38;;;;;;;8.00;2.57;;;;;;;5.25;77.68;99226.31;5027057;23;20275;-82
2021/04/12 05:14:06;;;;;;;4.43;2.80;;;;;;;5.48;77.19;99236.66;4990631;23;20227;-82
2021/04/12 05:17:24;;;;;;;5.73;2.80;;;;;;;5.55;76.90;99248.16;5010368;23;20225;-82
2021/04/12 05:21:04;;;;;;;4.43;2.63;;;;;;;5.58;77.18;99274.31;5050937;28;20217;-81
2021/04/12 05:24:29;;;;;;;5.60;2.77;;;;;;;5.63;77.55;99255.97;5038564;23;20250;-82
2021/04/12 05:27:29;;;;;;;6.23;2.70;;;;;;;5.65;77.76;99245.94;5014250;28;20194;-83
2021/04/12 05:31:32;;;;;;;9.13;2.73;;;;;;;5.62;77.88;99217.09;5039424;23;20222;-81
2021/04/12 05:35:00;;;;;;;4.87;2.83;;;;;;;5.76;78.36;99230.25;4984194;23;20218;-82
2021/04/12 05:38:18;;;;;;;13.53;2.83;;;;;;;5.84;78.11;99228.44;5032319;28;20231;-82
2021/04/12 05:41:47;;;;;;;7.10;3.00;;;;;;;5.81;78.08;99227.00;5029542;28;20261;-82
2021/04/12 05:45:31;;;;;;;7.23;3.00;;;;;;;5.91;78.02;99239.97;5016299;28;20519;-82
2021/04/12 05:48:57;;;;;;;8.97;3.07;;;;;;;6.04;77.45;99240.81;5007770;28;20223;-82
2021/04/12 05:52:21;;;;;;;7.30;3.30;;;;;;;6.17;77.46;99243.53;5015376;23;20222;-82
2021/04/12 05:55:43;;;;;;;3.93;3.10;;;;;;;6.31;77.47;99252.34;5026660;28;20247;-82
2021/04/12 05:59:00;;;;;;;6.23;3.67;;;;;;;6.43;78.01;99245.44;5027761;28;20230;-81
2021/04/12 06:02:53;;;;;;;7.37;3.50;;;;;;;6.58;77.32;99247.88;5033750;23;20314;-82
2021/04/12 06:06:18;;;;;;;12.30;4.00;;;;;;;6.77;77.63;99256.91;5004170;28;20709;-81
2021/04/12 06:09:41;;;;;;;10.90;3.50;;;;;;;7.05;76.87;99245.03;5015678;23;20230;-82
2021/04/12 06:13:01;;;;;;;11.63;3.67;;;;;;;7.48;75.98;99245.38;5035381;23;20242;-81
2021/04/12 06:16:18;;;;;;;12.83;4.13;;;;;;;7.80;74.90;99240.97;5016072;28;20280;-82
2021/04/12 06:19:27;;;;;;;7.07;4.23;;;;;;;8.01;74.11;99242.53;4992630;28;20239;-83
2021/04/12 06:22:53;;;;;;;6.57;3.80;;;;;;;8.28;73.46;99243.22;5017174;28;20218;-81
2021/04/12 06:26:16;;;;;;;5.03;3.97;;;;;;;8.47;73.29;99252.16;5020081;28;20265;-84
2021/04/12 06:29:18;;;;;;;5.80;3.80;;;;;;;8.76;72.11;99241.72;5009614;28;20287;-82
2021/04/12 06:32:40;;;;;;;4.53;3.60;;;;;;;8.91;71.92;99241.38;5014218;28;20215;-85
2021/04/12 06:35:46;;;;;;;5.53;4.07;;;;;;;9.27;71.03;99252.16;5038207;23;20261;-82
2021/04/12 06:39:19;;;;;;;7.97;5.00;;;;;;;9.50;70.18;99248.84;5133882;23;20244;-82
2021/04/12 06:42:38;;;;;;;7.70;4.40;;;;;;;10.01;69.21;99248.47;5012045;23;20227;-81
2021/04/12 06:46:29;;;;;;;4.97;4.00;;;;;;;10.41;67.78;99258.66;5014580;28;20231;-81
2021/04/12 06:50:13;;;;;;;6.07;4.00;;;;;;;10.76;66.66;99267.66;4995864;28;20235;-83
2021/04/12 06:53:26;;;;;;;7.00;4.03;;;;;;;11.02;65.40;99267.22;5024584;23;20226;-81
2021/04/12 06:56:40;;;;;;;7.20;4.30;;;;;;;11.49;63.74;99269.91;5073312;23;20697;-83
2021/04/12 07:00:01;;;;;;;10.57;4.23;;;;;;;11.76;62.50;99275.63;5047250;28;20190;-82
2021/04/12 07:03:19;;;;;;;6.70;4.20;;;;;;;12.15;61.11;99269.50;4982114;28;20891;-82
2021/04/12 07:06:17;;;;;;;5.17;3.33;;;;;;;12.54;59.88;99270.53;5150715;23;20217;-83
2021/04/12 07:10:12;;;;;;;5.73;3.60;;;;;;;12.94;58.54;99267.72;5054966;28;20217;-82
2021/04/12 07:13:22;;;;;;;5.40;3.40;;;;;;;13.26;56.86;99267.19;5034229;28;20300;-80
2021/04/12 07:17:16;;;;;;;10.67;3.57;;;;;;;13.67;56.03;99272.91;5053912;28;20299;-79
2021/04/12 07:21:00;;;;;;;6.03;3.37;;;;;;;13.67;55.21;99280.97;5038154;23;20293;-80
2021/04/12 07:24:17;;;;;;;6.43;3.63;;;;;;;13.61;55.50;99275.78;5010550;28;20249;-81
2021/04/12 07:27:55;;;;;;;5.83;3.50;;;;;;;13.97;55.89;99277.06;5023356;28;20215;-80
2021/04/12 07:31:38;;;;;;;3.97;3.30;;;;;;;14.25;55.46;99260.72;5026253;28;20230;-79
2021/04/12 07:34:39;;;;;;;4.90;4.17;;;;;;;14.51;54.47;99276.13;5028335;28;20234;-80
2021/04/12 07:38:06;;;;;;;4.10;3.63;;;;;;;14.64;54.21;99280.31;5023922;28;20199;-80
2021/04/12 07:41:18;;;;;;;4.87;3.87;;;;;;;14.65;53.95;99283.84;5036305;23;20228;-80
2021/04/12 07:44:58;;;;;;;4.73;3.60;;;;;;;14.71;54.16;99277.41;5052088;23;20241;-80
2021/04/12 07:48:42;;;;;;;4.03;3.60;;;;;;;14.73;53.61;99289.59;5025410;28;20257;-83
2021/04/12 07:52:41;;;;;;;4.90;3.73;;;;;;;14.96;53.68;99275.78;5021062;28;20227;-87
2021/04/12 07:56:21;;;;;;;7.33;3.67;;;;;;;15.46;52.93;99274.53;5015234;28;20230;-87
2021/04/12 08:00:00;;;;;;;4.53;3.97;;;;;;;15.73;51.77;99290.66;5016120;28;20221;-88
2021/04/12 08:03:17;;;;;;;5.27;3.63;;;;;;;16.04;50.91;99292.47;5003100;28;20240;-86
2021/04/12 08:06:37;;;;;;;5.80;3.67;;;;;;;15.96;49.96;99278.66;4994717;28;20243;-84
2021/04/12 08:09:33;;;;;;;4.33;3.63;;;;;;;15.92;50.79;99291.84;5004516;28;20232;-88
2021/04/12 08:12:50;;;;;;;4.93;3.90;;;;;;;16.14;51.02;99297.13;4998225;28;20234;-85
2021/04/12 08:16:01;;;;;;;4.73;4.03;;;;;;;16.23;50.57;99298.22;5020648;28;20226;-86
2021/04/12 08:19:10;;;;;;;6.70;5.20;;;;;;;16.33;50.53;99306.34;4997427;28;20229;-87
2021/04/12 08:22:33;;;;;;;6.10;4.40;;;;;;;16.67;49.71;99304.88;5012737;28;20264;-85
2021/04/12 08:25:39;;;;;;;5.13;4.33;;;;;;;16.84;49.27;99298.44;5000033;28;20321;-83
2021/04/12 08:28:40;;;;;;;5.27;3.90;;;;;;;16.88;47.50;99305.75;4981533;28;20237;-89
2021/04/12 08:31:40;;;;;;;4.43;3.87;;;;;;;17.06;47.71;99307.94;4996508;28;20317;-83
2021/04/12 08:34:41;;;;;;;4.17;3.83;;;;;;;16.91;47.91;99313.31;4999035;28;20233;-82
2021/04/12 08:37:31;;;;;;;5.80;3.97;;;;;;;17.13;47.01;99311.19;5001194;28;20317;-88
2021/04/12 08:40:33;;;;;;;5.60;3.80;;;;;;;17.39;45.13;99305.78;4996683;28;20223;-88
2021/04/12 08:43:37;;;;;;;6.10;4.10;;;;;;;17.57;45.68;99313.34;4996554;28;20240;-87
2021/04/12 08:46:43;;;;;;;4.13;3.80;;;;;;;17.85;44.29;99301.13;4997626;28;20610;-87
2021/04/12 08:49:41;;;;;;;4.90;3.90;;;;;;;17.82;44.35;99302.50;4980604;28;20219;-89
2021/04/12 08:52:38;;;;;;;4.67;4.13;;;;;;;17.75;44.56;99303.84;4996156;28;20562;-88
2021/04/12 08:55:38;;;;;;;4.43;4.00;;;;;;;17.94;45.34;99311.13;5009576;28;20294;-87
2021/04/12 08:58:32;;;;;;;5.33;4.67;;;;;;;18.17;44.40;99309.72;5015902;28;20241;-85
2021/04/12 09:01:21;;;;;;;4.33;4.00;;;;;;;18.07;44.57;99303.50;4968660;28;20253;-88
2021/04/12 09:04:07;;;;;;;4.87;4.40;;;;;;;18.18;44.09;99296.97;4996341;28;20346;-85
2021/04/12 09:07:08;;;;;;;9.40;4.60;;;;;;;18.24;43.67;99301.28;4997135;28;20289;-87
2021/04/12 09:10:02;;;;;;;5.03;4.33;;;;;;;17.70;45.17;99301.97;4996284;28;20281;-86
2021/04/12 09:13:15;;;;;;;5.53;4.87;;;;;;;18.02;44.97;99298.91;4996904;28;20259;-89
2021/04/12 09:16:21;;;;;;;5.83;4.33;;;;;;;17.99;44.45;99292.16;4999499;28;20249;-88
2021/04/12 09:19:35;;;;;;;7.20;5.10;;;;;;;18.24;45.32;99295.88;4962176;28;20230;-88
2021/04/12 09:22:33;;;;;;;5.00;4.60;;;;;;;18.34;44.18;99291.19;4996236;28;20274;-88
2021/04/12 09:25:22;;;;;;;6.13;4.20;;;;;;;18.46;44.20;99288.16;5004672;28;20219;-87
2021/04/12 09:28:13;;;;;;;5.13;4.70;;;;;;;18.32;44.54;99292.56;4999822;28;20529;-87
2021/04/12 09:30:59;;;;;;;4.77;4.40;;;;;;;18.24;44.77;99293.97;5003127;28;20293;-88
2021/04/12 09:33:53;;;;;;;9.70;8.07;;;;;;;18.57;44.88;99295.16;4997589;28;20224;-87
2021/04/12 09:36:54;;;;;;;5.80;5.30;;;;;;;18.78;43.70;99287.72;4980583;28;20318;-86
2021/04/12 09:39:37;;;;;;;8.40;6.10;;;;;;;18.99;43.57;99291.13;5016711;28;20234;-84
2021/04/12 09:42:29;;;;;;;8.30;6.10;;;;;;;19.00;43.59;99288.13;4996862;28;20278;-85
2021/04/12 09:45:33;;;;;;;7.40;5.40;;;;;;;19.22;43.64;99284.97;4981871;28;20364;-84
2021/04/12 09:48:19;;;;;;;7.93;6.33;;;;;;;19.25;43.54;99298.78;5015078;28;20284;-83
2021/04/12 09:51:41;;;;;;;7.40;6.17;;;;;;;19.29;42.45;99277.31;5004335;28;20306;-88
2021/04/12 09:54:46;;;;;;;7.97;7.30;;;;;;;19.54;42.47;99289.88;4984648;28;20294;-86
2021/04/12 09:57:58;;;;;;;6.60;5.90;;;;;;;19.51;42.17;99288.53;4995750;28;20223;-88
2021/04/12 10:00:46;;;;;;;10.53;8.40;;;;;;;19.62;43.06;99281.09;4996074;28;20310;-84
2021/04/12 10:03:44;;;;;;;6.47;5.87;;;;;;;19.63;43.26;99278.09;5013785;28;20675;-88
2021/04/12 10:06:41;;;;;;;7.47;6.00;;;;;;;19.64;43.25;99278.91;4987567;28;20323;-86
2021/04/12 10:09:55;;;;;;;6.30;5.70;;;;;;;19.31;43.68;99277.84;4983008;28;20355;-87
2021/04/12 10:13:11;;;;;;;6.50;5.90;;;;;;;19.19;43.44;99272.75;4994677;28;20310;-84
2021/04/12 10:16:06;;;;;;;7.87;6.03;;;;;;;19.50;43.81;99272.53;4982619;28;20219;-89
2021/04/12 10:19:09;;;;;;;7.07;6.37;;;;;;;19.48;43.57;99272.81;4980802;28;20314;-84
2021/04/12 10:22:03;;;;;;;7.20;6.60;;;;;;;20.03;42.56;99271.41;5010451;28;20218;-86
2021/04/12 10:25:13;;;;;;;7.60;6.57;;;;;;;20.42;41.00;99273.13;4997250;28;20255;-87
2021/04/12 10:28:12;;;;;;;6.53;6.03;;;;;;;20.62;39.89;99284.53;4996977;28;20315;-84
2021/04/12 10:31:10;;;;;;;6.47;5.80;;;;;;;21.08;39.34;99275.72;4996725;28;20718;-86
2021/04/12 10:34:21;;;;;;;8.00;7.40;;;;;;;21.86;38.29;99274.91;5001767;28;20334;-87
2021/04/12 10:37:23;;;;;;;6.03;5.43;;;;;;;21.66;38.61;99269.81;5015909;28;20648;-83
2021/04/12 10:40:22;;;;;;;6.27;5.67;;;;;;;20.82;39.80;99266.31;5015021;28;20323;-89
2021/04/12 10:43:42;;;;;;;6.10;5.50;;;;;;;20.11;40.96;99261.81;4997309;28;20238;-89
2021/04/12 10:46:53;;;;;;;5.80;5.40;;;;;;;20.23;40.91;99263.00;5000361;28;20224;-83
2021/04/12 10:50:00;;;;;;;6.30;5.70;;;;;;;20.18;40.93;99260.34;5014880;28;20235;-85
2021/04/12 10:53:09;;;;;;;6.00;5.60;;;;;;;19.98;41.59;99268.75;5011133;28;20227;-84
2021/04/12 10:56:16;;;;;;;6.60;5.40;;;;;;;20.61;40.27;99257.63;4990831;28;20219;-85
2021/04/12 10:59:24;;;;;;;5.67;5.17;;;;;;;20.78;39.56;99263.38;5018196;28;20680;-87
2021/04/12 11:02:22;;;;;;;5.63;5.23;;;;;;;20.59;39.38;99259.84;5003178;28;20232;-86
2021/04/12 11:05:10;;;;;;;6.13;5.03;;;;;;;20.11;40.57;99256.38;5001880;28;20521;-88
2021/04/12 11:07:53;;;;;;;8.90;5.33;;;;;;;20.73;39.60;99266.16;5007861;28;21235;-83
2021/04/12 11:11:09;;;;;;;5.80;5.30;;;;;;;20.36;39.86;99277.03;5005187;28;20222;-87
2021/04/12 11:14:00;;;;;;;6.03;4.93;;;;;;;21.00;38.98;99279.09;4991070;28;20229;-86
2021/04/12 11:16:57;;;;;;;6.10;5.17;;;;;;;21.03;38.54;99270.34;4999101;28;20230;-82
2021/04/12 11:19:40;;;;;;;5.87;5.13;;;;;;;21.38;37.58;99277.13;4981466;28;20233;-85
2021/04/12 11:22:37;;;;;;;5.60;5.20;;;;;;;21.45;36.88;99275.66;4999055;28;20242;-82
2021/04/12 11:25:41;;;;;;;5.10;4.67;;;;;;;22.14;35.99;99275.75;4999563;28;20525;-82
2021/04/12 11:28:25;;;;;;;5.20;4.70;;;;;;;21.71;37.06;99272.47;4997052;28;20248;-87
2021/04/12 11:31:05;;;;;;;5.17;4.77;;;;;;;21.24;37.16;99282.53;5002327;28;20233;-83
2021/04/12 11:33:56;;;;;;;6.07;5.50;;;;;;;21.01;37.71;99286.16;4995597;28;20251;-82
2021/04/12 11:37:02;;;;;;;6.87;5.37;;;;;;;21.46;36.91;99288.16;5013711;28;20223;-87
2021/04/12 11:40:18;;;;;;;7.00;5.20;;;;;;;21.53;36.62;99274.16;4993401;28;20535;-82
2021/04/12 11:43:02;;;;;;;9.77;5.80;;;;;;;21.52;36.40;99288.88;4996721;28;20236;-83
2021/04/12 11:46:07;;;;;;;7.10;6.07;;;;;;;21.48;37.05;99285.94;5008232;28;20231;-83
2021/04/12 11:49:28;;;;;;;6.27;5.67;;;;;;;21.52;37.23;99289.69;4998634;28;20273;-86
2021/04/12 11:52:08;;;;;;;7.57;6.87;;;;;;;21.55;36.89;99303.84;5030416;28;20220;-86
2021/04/12 11:55:03;;;;;;;6.83;6.23;;;;;;;20.65;38.24;99304.94;4991473;28;20230;-86
2021/04/12 11:58:12;;;;;;;7.60;7.00;;;;;;;20.54;38.91;99308.88;5000281;28;20227;-83
2021/04/12 12:01:16;;;;;;;8.87;6.70;;;;;;;19.99;39.59;99316.59;5007138;28;20231;-86
2021/04/12 12:04:23;;;;;;;7.83;6.37;;;;;;;19.66;40.70;99315.56;4995209;28;20707;-86
2021/04/12 12:07:11;;;;;;;7.90;6.50;;;;;;;19.30;41.53;99325.09;5012318;28;20221;-82
2021/04/12 12:10:31;;;;;;;9.50;7.23;;;;;;;18.85;42.74;99321.59;5010947;28;20637;-82
2021/04/12 12:13:23;;;;;;;13.60;7.43;;;;;;;18.66;43.60;99336.94;5033464;28;20257;-83
2021/04/12 12:16:28;;;;;;;7.67;6.97;;;;;;;18.60;43.53;99337.22;4986347;28;20322;-87
2021/04/12 12:19:33;;;;;;;10.60;7.13;;;;;;;18.39;44.32;99334.56;5017121;28;20222;-87
2021/04/12 12:22:28;;;;;;;8.73;7.23;;;;;;;18.28;44.80;99349.25;5006431;28;20268;-83
2021/04/12 12:25:15;;;;;;;7.37;6.77;;;;;;;17.95;45.67;99344.47;5000888;28;20246;-86
2021/04/12 12:28:15;;;;;;;7.20;6.60;;;;;;;17.92;45.93;99350.41;4976414;28;20238;-84
2021/04/12 12:30:57;;;;;;;17.93;7.07;;;;;;;17.62;46.76;99343.16;5001032;28;20310;-87
2021/04/12 12:33:52;;;;;;;9.80;7.00;;;;;;;17.52;46.99;99362.91;5028231;28;20633;-86
2021/04/12 12:36:46;;;;;;;7.20;6.47;;;;;;;17.29;47.11;99368.88;5006821;28;20314;-83
2021/04/12 12:39:36;;;;;;;7.97;6.83;;;;;;;17.09;47.38;99360.69;4988387;28;20543;-86
2021/04/12 12:42:25;;;;;;;9.07;7.23;;;;;;;17.06;47.83;99374.78;4987909;28;20499;-83
2021/04/12 12:45:15;;;;;;;12.87;6.93;;;;;;;16.94;48.04;99368.78;4966988;28;20274;-85
2021/04/12 12:48:03;;;;;;;11.27;6.60;;;;;;;16.72;48.48;99360.88;4965460;28;20219;-82
2021/04/12 12:51:19;;;;;;;6.93;6.33;;;;;;;16.37;49.37;99364.25;4975982;28;20233;-89
2021/04/12 12:54:15;;;;;;;7.23;6.60;;;;;;;16.49;49.06;99372.13;4975470;28;20235;-88
2021/04/12 12:56:58;;;;;;;6.87;6.27;;;;;;;16.10;49.91;99371.66;4972257;28;20231;-86
2021/04/12 13:00:18;;;;;;;6.47;5.87;;;;;;;15.96;50.38;99381.31;5010525;28;20226;-81
2021/04/12 13:04:21;;;;;;;6.90;6.20;;;;;;;15.64;51.42;99384.03;5043334;23;20281;-82
2021/04/12 13:07:55;;;;;;;6.53;6.03;;;;;;;15.53;52.11;99387.75;5014452;28;20228;-82
2021/04/12 13:11:50;;;;;;;6.57;5.97;;;;;;;15.30;52.69;99400.47;5023493;28;20287;-86
2021/04/12 13:15:53;;;;;;;8.20;6.43;;;;;;;15.05;53.63;99402.09;4995507;23;20223;-81
2021/04/12 13:18:59;;;;;;;7.87;7.17;;;;;;;14.86;54.47;99409.72;5050921;28;20228;-81
2021/04/12 13:22:27;;;;;;;7.87;7.03;;;;;;;14.52;55.50;99403.66;5069282;23;20235;-81
2021/04/12 13:25:48;;;;;;;10.20;6.83;;;;;;;14.33;55.71;99410.38;5043194;28;20249;-82
2021/04/12 13:29:27;;;;;;;7.27;6.03;;;;;;;13.77;55.58;99397.97;5011693;23;20237;-84
2021/04/12 13:32:51;;;;;;;8.80;5.87;;;;;;;13.16;57.13;99434.59;4938520;28;20236;-83
2021/04/12 13:36:13;;;;;;;6.50;4.83;;;;;;;12.59;58.11;99458.75;4956309;28;20244;-82
2021/04/12 13:39:50;;;;;;;6.73;4.10;;;;;;;12.06;58.69;99482.22;4955443;29;20217;-84
2021/04/12 13:43:03;;;;;;;4.80;2.97;;;;;;;11.67;59.15;99464.88;4950436;29;20232;-84
2021/04/12 13:46:19;;;;;;;4.97;2.80;;;;;;;11.37;58.91;99455.00;4954541;28;20220;-85
2021/04/12 13:49:42;;;;;;;7.17;2.50;;;;;;;10.96;60.10;99476.41;4975408;28;20220;-85
2021/04/12 13:53:00;;;;;;;3.17;1.90;;;;;;;10.75;60.29;99464.28;4973351;28;20562;-83
2021/04/12 13:56:37;;;;;;;2.80;1.50;;;;;;;10.56;60.98;99476.06;4975026;28;20255;-85
2021/04/12 13:59:42;;;;;;;3.27;1.93;;;;;;;10.22;61.57;99460.56;4965396;28;20239;-84
2021/04/12 14:03:02;;;;;;;1.40;1.10;;;;;;;9.97;62.33;99457.88;4973850;28;20232;-85
2021/04/12 14:06:07;;;;;;;2.10;0.93;;;;;;;9.85;62.93;99471.16;4973420;28;20257;-83
2021/04/12 14:10:07;;;;;;;4.87;1.10;;;;;;;9.80;63.01;99483.56;4974308;28;20288;-84
2021/04/12 14:13:18;;;;;;;2.63;0.90;;;;;;;9.61;63.33;99494.16;5003885;23;20822;-83
2021/04/12 14:17:38;;;;;;;1.00;0.90;;;;;;;9.27;63.36;99499.97;5062639;28;20228;-83
2021/04/12 14:25:31;;;;;;;2.50;0.63;;;;;;;8.95;64.33;99543.69;5082717;23;20225;-83
2021/04/12 14:28:55;;;;;;;1.80;0.50;;;;;;;8.53;65.85;99542.38;5049311;28;20233;-83
2021/04/12 14:31:52;;;;;;;0.77;0.40;;;;;;;8.43;66.59;99541.97;5042853;23;20214;-83
2021/04/12 14:38:27;;;;;;;1.40;0.30;;;;;;;8.10;67.09;99557.97;5140760;23;20297;-83
2021/04/12 14:41:52;;;;;;;1.03;0.23;;;;;;;8.08;66.98;99582.19;5045803;28;20174;-82
2021/04/12 14:45:38;;;;;;;1.50;0.37;;;;;;;7.41;70.68;99544.97;5062974;28;20237;-82
2021/04/12 14:51:59;;;;;;;0.77;0.47;;;;;;;7.03;72.23;99603.22;5019937;23;20318;-82
2021/04/12 14:55:27;;;;;;;0.50;0.40;;;;;;;6.89;71.38;99583.69;5035251;28;20214;-82
2021/04/12 14:59:07;;;;;;;0.47;0.30;;;;;;;6.57;74.57;99629.56;5069652;23;20251;-82
2021/04/12 15:02:56;;;;;;;0.23;0.23;;;;;;;6.48;74.81;99628.91;4973097;28;20270;-82
2021/04/12 15:06:47;;;;;;;0.47;0.30;;;;;;;6.47;74.64;99624.59;5005943;28;20224;-81
2021/04/12 15:10:25;;;;;;;0.93;0.20;;;;;;;6.38;73.98;99646.22;5021383;23;20242;-82
2021/04/12 15:14:10;;;;;;;1.27;0.40;;;;;;;6.26;73.71;99640.56;5031410;28;20218;-82
2021/04/12 15:17:43;;;;;;;0.30;0.30;;;;;;;6.06;75.01;99659.03;5002075;28;20262;-82
2021/04/12 15:21:37;;;;;;;1.30;0.63;;;;;;;6.17;74.12;99660.34;5013933;23;20578;-82
2021/04/12 15:25:05;;;;;;;0.80;0.30;;;;;;;6.16;73.56;99679.97;5011464;28;20286;-82
2021/04/12 15:28:37;;;;;;;1.20;0.40;;;;;;;6.03;75.05;99698.47;4999142;28;20192;-82
2021/04/12 15:31:45;;;;;;;1.07;0.80;;;;;;;5.99;75.79;99708.66;4995779;28;20235;-82
2021/04/12 15:35:22;;;;;;;0.77;0.30;;;;;;;5.95;75.11;99711.88;5103035;23;20203;-82
2021/04/12 15:38:43;;;;;;;0.40;0.33;;;;;;;5.97;74.83;99726.63;5057931;23;20241;-83
2021/04/12 15:45:34;;;;;;;0.50;0.50;;;;;;;5.81;75.91;99755.25;4981445;28;20208;-82
2021/04/12 15:49:24;;;;;;;0.83;0.30;;;;;;;5.80;76.14;99754.41;4972343;29;20232;-82
2021/04/12 15:52:45;;;;;;;0.30;0.30;;;;;;;5.83;75.87;99775.34;5042045;23;20210;-82
2021/04/12 15:56:16;;;;;;;0.30;0.30;;;;;;;5.80;74.41;99788.97;5044534;23;20217;-81